createdAt,value
2022-10-22T16:59:59.731Z,101130.41
2022-10-22T17:03:03.555Z,101142.47
2022-10-22T17:06:08.056Z,101138.38
2022-10-22T17:09:12.034Z,101141.34
2022-10-22T17:12:16.140Z,101141.34
2022-10-22T17:15:21.224Z,101151.03
2022-10-22T17:18:25.323Z,101150.59
2022-10-22T17:21:28.935Z,101143.28
2022-10-22T17:24:32.963Z,101153.09
2022-10-22T17:27:36.875Z,101151.53
2022-10-22T17:30:42.020Z,101161.44
2022-10-22T17:33:46.442Z,101162.94
2022-10-22T17:36:50.167Z,101163.75
2022-10-22T17:39:53.866Z,101154.47
2022-10-22T17:42:57.792Z,101164.88
2022-10-22T17:46:11.887Z,101165.88
2022-10-22T17:49:18.236Z,101165.88
2022-10-22T17:52:21.875Z,101171.78
2022-10-22T17:55:25.540Z,101168.31
2022-10-22T17:58:30.779Z,101176.94
2022-10-22T18:01:40.244Z,101171.19
2022-10-22T18:04:43.876Z,101165.66
2022-10-22T18:07:47.484Z,101175.13
2022-10-22T18:10:51.126Z,101185.63
2022-10-22T18:13:56.617Z,101181.88
2022-10-22T18:17:03.032Z,101184.66
2022-10-22T18:20:07.860Z,101184.66
2022-10-22T18:23:13.545Z,101190.69
2022-10-22T18:26:20.342Z,101193.59
2022-10-22T18:29:26.705Z,101200.44
2022-10-22T18:32:33.984Z,101194.03
2022-10-22T18:35:37.603Z,101193.59
2022-10-22T18:38:41.461Z,101203.22
2022-10-22T18:41:45.083Z,101197.44
2022-10-22T18:44:48.680Z,101205.59
2022-10-22T18:47:54.700Z,101203.19
2022-10-22T18:51:03.175Z,101209.81
2022-10-22T18:54:22.200Z,101211.00
2022-10-22T18:57:28.103Z,101209.31
2022-10-22T19:00:31.768Z,101210.19
2022-10-22T19:03:36.923Z,101204.69
2022-10-22T19:06:45.101Z,101208.03
2022-10-22T19:09:49.392Z,101216.94
2022-10-22T19:12:52.988Z,101219.47
2022-10-22T19:16:03.070Z,101217.91
2022-10-22T19:19:09.042Z,101223.97
2022-10-22T19:22:12.920Z,101228.03
2022-10-22T19:25:16.700Z,101230.22
2022-10-22T19:28:20.355Z,101230.69
2022-10-22T19:31:26.052Z,101229.38
2022-10-22T19:34:31.166Z,101239.84
2022-10-22T19:37:37.070Z,101246.94
2022-10-22T19:40:42.180Z,101242.38
2022-10-22T19:43:49.385Z,101241.19
2022-10-22T19:46:53.335Z,101239.59
2022-10-22T19:49:58.511Z,101246.84
2022-10-22T19:53:02.143Z,101247.44
2022-10-22T19:56:07.869Z,101246.03
2022-10-22T19:59:12.525Z,101250.47
2022-10-22T20:02:17.775Z,101252.91
2022-10-22T20:08:32.152Z,101273.38
2022-10-22T20:11:35.776Z,101261.19
2022-10-22T20:14:40.764Z,101265.19
2022-10-22T20:17:44.741Z,101280.88
2022-10-22T20:20:50.236Z,101288.31
2022-10-22T20:23:56.634Z,101293.84
2022-10-22T20:27:05.571Z,101294.25
2022-10-22T20:30:10.757Z,101294.59
2022-10-22T20:33:14.928Z,101306.78
2022-10-22T20:36:22.036Z,101292.91
2022-10-22T20:39:25.721Z,101299.16
2022-10-22T20:42:29.386Z,101314.38
2022-10-22T20:45:33.238Z,101305.66
2022-10-22T20:48:39.216Z,101298.53
2022-10-22T20:51:44.711Z,101306.97
2022-10-22T20:54:48.569Z,101310.94
2022-10-22T20:57:52.337Z,101307.41
2022-10-22T21:00:56.475Z,101309.81
2022-10-22T21:04:00.118Z,101297.63
2022-10-22T21:07:05.211Z,101308.44
2022-10-22T21:10:09.701Z,101313.38
2022-10-22T21:13:13.696Z,101302.03
2022-10-22T21:16:19.906Z,101315.72
2022-10-22T21:19:24.216Z,101311.00
2022-10-22T21:22:29.283Z,101315.44
2022-10-22T21:25:32.926Z,101312.09
2022-10-22T21:28:37.922Z,101305.91
2022-10-22T21:31:41.659Z,101314.56
2022-10-22T21:34:45.230Z,101317.41
2022-10-22T21:37:50.254Z,101324.13
2022-10-22T21:40:53.963Z,101315.53
2022-10-22T21:43:57.669Z,101320.03
2022-10-22T21:47:01.267Z,101317.50
2022-10-22T21:50:05.165Z,101323.50
2022-10-22T21:53:10.631Z,101324.41
2022-10-22T21:56:16.204Z,101325.78
2022-10-22T21:59:20.221Z,101329.41
2022-10-22T22:02:23.959Z,101330.25
2022-10-22T22:05:27.830Z,101327.94
2022-10-22T22:08:33.497Z,101323.25
2022-10-22T22:11:37.122Z,101324.56
2022-10-22T22:14:41.275Z,101339.94
2022-10-22T22:17:45.021Z,101332.22
2022-10-22T22:20:48.683Z,101329.31
2022-10-22T22:23:53.688Z,101320.16
2022-10-22T22:26:57.388Z,101329.16
2022-10-22T22:30:01.052Z,101328.56
2022-10-22T22:33:05.076Z,101328.38
2022-10-22T22:36:09.816Z,101325.69
2022-10-22T22:39:17.064Z,101329.44
2022-10-22T22:42:20.725Z,101329.53
2022-10-22T22:45:24.387Z,101326.53
2022-10-22T22:48:28.360Z,101322.16
2022-10-22T22:51:32.107Z,101326.22
2022-10-22T22:54:37.111Z,101311.78
2022-10-22T22:57:40.670Z,101321.59
2022-10-22T23:00:44.394Z,101318.19
2022-10-22T23:03:53.266Z,101311.44
2022-10-22T23:06:57.010Z,101311.00
2022-10-22T23:10:01.988Z,101310.22
2022-10-22T23:13:05.645Z,101310.69
2022-10-22T23:16:13.328Z,101313.44
2022-10-22T23:19:19.648Z,101311.19
2022-10-22T23:22:23.278Z,101310.75
2022-10-22T23:25:28.728Z,101318.00
2022-10-22T23:28:32.494Z,101316.75
2022-10-22T23:31:36.219Z,101312.13
2022-10-22T23:34:39.927Z,101318.09
2022-10-22T23:37:43.753Z,101312.41
2022-10-22T23:40:55.213Z,101325.22
